• Join FlightAware (Why Join?)
  • Login
  • US Flag 
12:57AM EST


 

Airport Tracker/Info


-or-


 

Live Flight TrackerFlight Track Log ✈ SKW5631 ✈ 10-Dec-2013 ✈ KSFO - KBUR

Flight Track Log - Related Links

Times and Time Zones

All times are in EST time to prevent confusion due to time zone crossing. See the SKW5631 flight status page for this flight to view local times or setup timezone preferences in your user account.

Time Position Orientation Groundspeed Altitude Reporting Facility
EST Latitude Longitude Course Direction KTS MPH feet Rate Location/Type
10:47PM 37.6333 -122.3667 138° Southeast 150 173 700  Level Northern Cal TRACON
10:48PM 37.6833 -122.3667 360° North 185 213 2,600 2,220 Climbing Northern Cal TRACON
10:48PM 37.7142 -122.3819 339° North 201 231 4,600 2,340 Climbing Oakland Center
10:50PM 37.2270 -121.8879 141° Southeast  Level Estimated
10:50PM 37.6783 -122.4481 236° Southwest 266 306 6,700  Level Oakland Center
10:51PM 37.1287 -121.7669 135° Southeast  Level Estimated
10:51PM 37.5961 -122.4350 173° South 296 341 9,500  Level Oakland Center
10:52PM 37.0303 -121.6462 138° Southeast  Level Estimated
10:52PM 37.5272 -122.3664 142° Southeast 315 362 11,400  Level Oakland Center
10:53PM 37.4550 -122.2900 140° Southeast 337 388 13,600 2,100 Climbing Oakland Center
10:54PM 37.3800 -122.2097 140° Southeast 353 406 15,700 1,860 Climbing Oakland Center
10:55PM 37.3025 -122.1297 141° Southeast 359 413 17,500 1,620 Climbing Oakland Center
10:56PM 37.2058 -122.0272 140° Southeast 380 437 19,000 1,440 Climbing Oakland Center
10:57PM 37.1236 -121.9372 139° Southeast 391 450 20,500 1,440 Climbing Oakland Center
10:58PM 37.0378 -121.8492 141° Southeast 400 460 22,000 1,260 Climbing Oakland Center
10:59PM 36.9519 -121.7578 140° Southeast 404 465 23,100 1,020 Climbing Oakland Center
11:00PM 36.8631 -121.6656 140° Southeast 413 475 24,100 960 Climbing Oakland Center
11:01PM 36.7761 -121.5742 140° Southeast 422 486 25,100 960 Climbing Oakland Center
11:02PM 36.6844 -121.4786 140° Southeast 427 491 26,100 900 Climbing Oakland Center
11:03PM 36.5928 -121.3836 140° Southeast 429 494 27,000 840 Climbing Oakland Center
11:04PM 36.4994 -121.2875 140° Southeast 435 501 27,900 780 Climbing Oakland Center
11:05PM 36.4058 -121.1900 140° Southeast 438 504 28,600 720 Climbing Oakland Center
11:06PM 36.2925 -121.0736 140° Southeast 442 509 29,400 780 Climbing Oakland Center
11:07PM 36.1967 -120.9761 141° Southeast 445 512 30,300 780 Climbing Oakland Center
11:08PM 36.1025 -120.8789 140° Southeast 443 510 31,000 300 Climbing Oakland Center
11:09PM 36.0064 -120.7811 141° Southeast 446 513 31,000  Level Oakland Center
11:10PM 35.9078 -120.6797 140° Southeast 457 526 31,000  Level Oakland Center
11:11PM 35.8056 -120.5758 140° Southeast 470 541 31,000  Level Oakland Center
11:12PM 35.7028 -120.4719 141° Southeast 476 548 31,000  Level Oakland Center
11:13PM 35.5981 -120.3681 141° Southeast 479 551 31,000  Level Oakland Center
11:14PM 35.4928 -120.2622 141° Southeast 479 551 31,000  Level Oakland Center
11:15PM 35.3875 -120.1558 141° Southeast 477 549 31,000 -780 Level Oakland Center
11:16PM 35.2839 -120.0539 141° Southeast 475 547 29,500 -1,560 Descending Oakland Center
11:17PM 35.1825 -119.9525 141° Southeast 470 541 27,900 -1,500 Descending Oakland Center
11:18PM 35.0842 -119.8531 140° Southeast 462 532 26,500 -1,500 Descending Oakland Center
11:19PM 35.0019 -119.7425 132° Southeast 445 512 24,900 -2,280 Descending Oakland Center
11:20PM 34.9222 -119.6317 131° Southeast 438 504 21,900 -3,000 Descending Oakland Center
11:21PM 34.8439 -119.5256 132° Southeast 427 491 18,900 -2,820 Descending Oakland Center
11:22PM 34.7694 -119.4258 132° Southeast 407 468 16,200 -3,120 Descending Oakland Center
11:23PM 34.6856 -119.3125 132° Southeast 384 442 12,600 -2,520 Descending Oakland Center
11:24PM 34.6167 -119.2231 133° Southeast 369 425 11,100 -720 Descending Oakland Center
11:25PM 34.5467 -119.1336 134° Southeast 302 348 11,000 -60 Descending Los Angeles Center
11:26PM 34.5031 -119.0750 132° Southeast 295 339 11,000 -540 Level Los Angeles Center
11:27PM 34.4386 -118.9875 132° Southeast 289 333 10,000 -1,440 Descending Los Angeles Center
11:28PM 34.3903 -118.9122 128° Southeast 282 325 8,100 -2,100 Descending Los Angeles Center
11:30PM 34.3358 -118.8242 127° Southeast 272 313 5,700 -1,740 Descending Los Angeles Center
11:31PM 34.2936 -118.7567 127° Southeast 259 298 4,600 -840 Descending Los Angeles Center
11:32PM 34.2533 -118.6953 128° Southeast 245 282 4,000 -300 Descending Los Angeles Center
11:33PM 34.2206 -118.6408 126° Southeast 218 251 4,000 -300 Level Los Angeles Center
11:33PM 34.2000 -118.5833 113° Southeast 203 234 3,500 -540 Descending Southern California TRACON
11:34PM 34.2000 -118.5167 90° East 200 230 3,000 -600 Descending Southern California TRACON
11:35PM 34.2000 -118.4500 90° East 162 186 2,300 -840 Descending Southern California TRACON
11:36PM 34.2000 -118.4000 90° East 144 166 1,400 -540 Descending Southern California TRACON
11:38PM 34.1989 -118.3492 91° East 161 185 1,100 -240 Descending Los Angeles Center